Airfield :
LOGIN :

Register | Disclaimer

   EN    FR    IT 

 










Legend :    VFR   Marginal VFR   IFR   Intensive IFR   Very Intensive IFR
Visi :
Ceiling :
>= 8 km
>= 3000ft
5 to 8 km
1000 to 3000 ft
1500m to 5 km
500 to 1000 ft
800 to 1500m
200 to 500 ft
< 800m
< 200 ft
Symbols :   Thunderstorms  Fog  Heavy snow  Heavy precipitations  Wind > 20 kt
SIGMETs :     Misc.  Thunderstorms  Icing  Turbulence  Mountain Waves  Volcanic Ashes







- Airport Elevation : 26 ft
- IATA code : BIA
- Download approach charts


LFKB - Bastia

CURRENT METAR :
  • 131530Z AUTO 30005KT 9999 -RA OVC019 08/07 Q1010 TEMPO 4000 SHRA BKN010 OVC020 SCT030TCU

EXPIRED METARs :
  • 131500Z AUTO 29005KT 9999 RA OVC017/// ///TCU 09/07 Q1010 TEMPO 4000 SHRA BKN010 OVC020 SCT030TCU
  • 131430Z AUTO 30005KT 260V320 9999 RA BKN015/// BKN021/// BKN028/// ///TCU 09/08 Q1010 TEMPO 4000 SHRA BKN010 OVC020 SCT030TCU
  • 131400Z AUTO 31005KT 9999 RA BKN018/// BKN025/// OVC036/// ///TCU 09/08 Q1010 TEMPO 4000 SHRA BKN010 OVC020 SCT030TCU
  • 131330Z AUTO 25004KT 9999 RA BKN024/// OVC029/// ///TCU 09/08 Q1010 TEMPO 4000 SHRA BKN010 OVC020 SCT030TCU BECMG 33010KT
  • 131300Z AUTO 30004KT 9999 -RA BKN022/// OVC030/// ///TCU 09/07 Q1010 TEMPO 4000 SHRA BKN010 OVC020 SCT030TCU

TAF TAF LFKB
Valid from the 13 at 15:00 until the 14 at 15:00 UTC


131400Z 1315/1415 33010KT 8000 -RA SCT012 BKN020 OVC030 TX12/1413Z TN07/1403Z
TEMPO 1315/1324 4000 SHRA BKN010 OVC020 SCT030TCU
BECMG 1406/1408 32012KT SCT030
BECMG 1414/1415 CAVOK
ATIS : +33 4 95 59 19 40
No reported NOTAMs for that airfield.



MET'MAP, your aeronautical weather chart ! - Copyright ORBIFLY December 2007 - Disclaimer

ORBIFLY MET'MAP TEAM :

Programming & Development : Alexandra Zaïnal
Concept & Development : Baudouin d'Aumeries
Co-Development & Prog : Marc-Olivier Méhu
Technical & hardware support : Manuel Goepfert

Contact : metmap@orbifly.com




SOURCES & CREDITS :

   NOAA